sensor_id;sensor_type;location;lat;lon;timestamp;pressure;altitude;pressure_sealevel;temperature;humidity
20612;BME280;10465;42.686;23.364;2023-03-25T00:00:15;94698.56;;;13.85;56.77
20612;BME280;10465;42.686;23.364;2023-03-25T00:02:44;94709.91;;;13.94;56.81
20612;BME280;10465;42.686;23.364;2023-03-25T00:05:11;94704.47;;;13.91;56.71
20612;BME280;10465;42.686;23.364;2023-03-25T00:07:42;94717.69;;;13.99;56.91
20612;BME280;10465;42.686;23.364;2023-03-25T00:10:09;94706.34;;;13.90;56.48
20612;BME280;10465;42.686;23.364;2023-03-25T00:12:35;94714.88;;;13.96;56.33
20612;BME280;10465;42.686;23.364;2023-03-25T00:15:00;94698.91;;;13.83;56.46
20612;BME280;10465;42.686;23.364;2023-03-25T00:17:27;94678.34;;;13.72;56.80
20612;BME280;10465;42.686;23.364;2023-03-25T00:19:56;94708.25;;;13.90;56.78
20612;BME280;10465;42.686;23.364;2023-03-25T00:22:22;94689.66;;;13.69;57.37
20612;BME280;10465;42.686;23.364;2023-03-25T00:24:48;94669.78;;;13.54;57.53
20612;BME280;10465;42.686;23.364;2023-03-25T00:27:14;94695.88;;;13.73;57.61
20612;BME280;10465;42.686;23.364;2023-03-25T00:29:42;94689.00;;;13.72;57.55
20612;BME280;10465;42.686;23.364;2023-03-25T00:32:09;94683.38;;;13.73;57.56
20612;BME280;10465;42.686;23.364;2023-03-25T00:34:34;94684.78;;;13.71;57.49
20612;BME280;10465;42.686;23.364;2023-03-25T00:37:08;94682.44;;;13.69;57.77
20612;BME280;10465;42.686;23.364;2023-03-25T00:39:37;94683.88;;;13.67;57.77
20612;BME280;10465;42.686;23.364;2023-03-25T00:42:03;94670.44;;;13.51;58.08
20612;BME280;10465;42.686;23.364;2023-03-25T00:44:29;94686.50;;;13.54;58.43
20612;BME280;10465;42.686;23.364;2023-03-25T00:46:55;94687.63;;;13.53;58.44
20612;BME280;10465;42.686;23.364;2023-03-25T00:49:20;94677.84;;;13.45;58.43
20612;BME280;10465;42.686;23.364;2023-03-25T00:51:52;94664.59;;;13.36;58.85
20612;BME280;10465;42.686;23.364;2023-03-25T00:54:17;94673.31;;;13.46;58.92
20612;BME280;10465;42.686;23.364;2023-03-25T00:56:46;94686.69;;;13.37;59.22
20612;BME280;10465;42.686;23.364;2023-03-25T00:59:12;94668.50;;;13.39;59.13
20612;BME280;10465;42.686;23.364;2023-03-25T01:01:37;94665.72;;;13.35;59.20
20612;BME280;10465;42.686;23.364;2023-03-25T01:04:05;94672.00;;;13.31;59.56
20612;BME280;10465;42.686;23.364;2023-03-25T01:06:38;94632.16;;;13.10;59.35
20612;BME280;10465;42.686;23.364;2023-03-25T01:09:13;94666.13;;;13.25;59.95
20612;BME280;10465;42.686;23.364;2023-03-25T01:11:40;94669.81;;;13.33;60.33
20612;BME280;10465;42.686;23.364;2023-03-25T01:14:11;94660.19;;;13.20;60.29
20612;BME280;10465;42.686;23.364;2023-03-25T01:16:38;94658.31;;;13.20;60.36
20612;BME280;10465;42.686;23.364;2023-03-25T01:19:03;94618.09;;;12.89;60.16
20612;BME280;10465;42.686;23.364;2023-03-25T01:21:29;94649.06;;;13.05;60.59
20612;BME280;10465;42.686;23.364;2023-03-25T01:23:58;94651.38;;;13.07;60.71
20612;BME280;10465;42.686;23.364;2023-03-25T01:26:23;94660.78;;;13.04;61.16
20612;BME280;10465;42.686;23.364;2023-03-25T01:28:49;94640.78;;;12.86;61.38
20612;BME280;10465;42.686;23.364;2023-03-25T01:31:15;94640.19;;;12.80;61.67
20612;BME280;10465;42.686;23.364;2023-03-25T01:33:40;94566.59;;;12.39;61.73
20612;BME280;10465;42.686;23.364;2023-03-25T01:36:07;94606.03;;;12.70;61.38
20612;BME280;10465;42.686;23.364;2023-03-25T01:38:37;94621.34;;;12.73;61.63
20612;BME280;10465;42.686;23.364;2023-03-25T01:41:04;94614.91;;;12.74;61.60
20612;BME280;10465;42.686;23.364;2023-03-25T01:43:31;94623.03;;;12.78;61.46
20612;BME280;10465;42.686;23.364;2023-03-25T01:45:57;94617.38;;;12.58;62.39
20612;BME280;10465;42.686;23.364;2023-03-25T01:48:28;94599.03;;;12.45;61.95
20612;BME280;10465;42.686;23.364;2023-03-25T01:51:19;94630.16;;;12.65;61.18
20612;BME280;10465;42.686;23.364;2023-03-25T01:53:47;94626.31;;;12.54;61.89
20612;BME280;10465;42.686;23.364;2023-03-25T01:56:17;94625.41;;;12.50;62.58
20612;BME280;10465;42.686;23.364;2023-03-25T01:58:43;94640.22;;;12.51;62.25
20612;BME280;10465;42.686;23.364;2023-03-25T02:01:11;94607.09;;;12.27;62.01
20612;BME280;10465;42.686;23.364;2023-03-25T02:03:39;94630.28;;;12.39;61.72
20612;BME280;10465;42.686;23.364;2023-03-25T02:06:23;94630.47;;;12.34;61.31
20612;BME280;10465;42.686;23.364;2023-03-25T02:08:55;94565.94;;;11.92;61.46
20612;BME280;10465;42.686;23.364;2023-03-25T02:11:22;94625.56;;;12.24;61.85
20612;BME280;10465;42.686;23.364;2023-03-25T02:13:54;94617.47;;;12.20;61.75
20612;BME280;10465;42.686;23.364;2023-03-25T02:30:29;94610.56;;;12.28;60.54
20612;BME280;10465;42.686;23.364;2023-03-25T02:38:51;94598.94;;;12.11;60.71
20612;BME280;10465;42.686;23.364;2023-03-25T02:46:25;94605.84;;;12.04;61.07
20612;BME280;10465;42.686;23.364;2023-03-25T02:48:55;94607.63;;;11.91;61.44
20612;BME280;10465;42.686;23.364;2023-03-25T02:51:27;94592.34;;;11.79;61.99
20612;BME280;10465;42.686;23.364;2023-03-25T02:53:57;94608.34;;;12.00;62.01
20612;BME280;10465;42.686;23.364;2023-03-25T02:56:25;94609.56;;;12.03;61.97
20612;BME280;10465;42.686;23.364;2023-03-25T02:58:54;94587.13;;;12.00;62.06
20612;BME280;10465;42.686;23.364;2023-03-25T03:01:22;94600.75;;;12.20;62.22
20612;BME280;10465;42.686;23.364;2023-03-25T03:03:51;94595.94;;;12.13;62.45
20612;BME280;10465;42.686;23.364;2023-03-25T03:06:17;94575.16;;;11.85;63.61
20612;BME280;10465;42.686;23.364;2023-03-25T03:11:22;94591.78;;;12.03;63.36
20612;BME280;10465;42.686;23.364;2023-03-25T03:24:35;94603.47;;;12.02;62.99
20612;BME280;10465;42.686;23.364;2023-03-25T03:27:18;94595.56;;;11.94;62.74
20612;BME280;10465;42.686;23.364;2023-03-25T03:29:51;94596.72;;;11.75;63.22
20612;BME280;10465;42.686;23.364;2023-03-25T03:32:44;94599.06;;;11.77;63.54
20612;BME280;10465;42.686;23.364;2023-03-25T03:35:43;94597.22;;;11.69;63.70
20612;BME280;10465;42.686;23.364;2023-03-25T03:38:15;94603.91;;;11.66;63.97
20612;BME280;10465;42.686;23.364;2023-03-25T03:40:45;94601.00;;;11.59;63.96
20612;BME280;10465;42.686;23.364;2023-03-25T03:43:18;94600.19;;;11.58;63.75
20612;BME280;10465;42.686;23.364;2023-03-25T03:45:50;94599.91;;;11.60;63.72
20612;BME280;10465;42.686;23.364;2023-03-25T03:48:24;94602.41;;;11.56;64.00
20612;BME280;10465;42.686;23.364;2023-03-25T03:51:05;94604.38;;;11.68;63.73
20612;BME280;10465;42.686;23.364;2023-03-25T03:53:51;94599.09;;;11.68;64.02
20612;BME280;10465;42.686;23.364;2023-03-25T03:56:25;94596.09;;;11.70;63.61
20612;BME280;10465;42.686;23.364;2023-03-25T03:58:53;94582.91;;;11.52;64.28
20612;BME280;10465;42.686;23.364;2023-03-25T04:01:36;94593.97;;;11.63;64.92
20612;BME280;10465;42.686;23.364;2023-03-25T04:04:12;94604.72;;;11.58;65.04
20612;BME280;10465;42.686;23.364;2023-03-25T04:11:40;94597.91;;;11.48;65.34
20612;BME280;10465;42.686;23.364;2023-03-25T04:14:07;94611.13;;;11.57;65.50
20612;BME280;10465;42.686;23.364;2023-03-25T04:16:34;94600.84;;;11.55;65.37
20612;BME280;10465;42.686;23.364;2023-03-25T04:19:03;94560.09;;;11.30;65.34
20612;BME280;10465;42.686;23.364;2023-03-25T04:21:30;94596.63;;;11.54;65.59
20612;BME280;10465;42.686;23.364;2023-03-25T04:23:55;94596.78;;;11.58;65.28
20612;BME280;10465;42.686;23.364;2023-03-25T04:26:26;94601.59;;;11.64;65.14
20612;BME280;10465;42.686;23.364;2023-03-25T04:28:51;94603.47;;;11.64;65.20
20612;BME280;10465;42.686;23.364;2023-03-25T04:31:17;94601.13;;;11.62;65.26
20612;BME280;10465;42.686;23.364;2023-03-25T04:33:43;94587.31;;;11.48;65.90
20612;BME280;10465;42.686;23.364;2023-03-25T04:36:13;94604.59;;;11.46;66.28
20612;BME280;10465;42.686;23.364;2023-03-25T04:38:39;94608.34;;;11.45;66.19
20612;BME280;10465;42.686;23.364;2023-03-25T04:41:06;94587.63;;;11.38;65.99
20612;BME280;10465;42.686;23.364;2023-03-25T04:43:31;94597.28;;;11.51;66.10
20612;BME280;10465;42.686;23.364;2023-03-25T04:45:58;94608.66;;;11.52;66.16
20612;BME280;10465;42.686;23.364;2023-03-25T04:48:29;94610.50;;;11.60;65.61
20612;BME280;10465;42.686;23.364;2023-03-25T04:50:56;94609.06;;;11.62;65.88
20612;BME280;10465;42.686;23.364;2023-03-25T04:53:23;94616.88;;;11.68;65.88
20612;BME280;10465;42.686;23.364;2023-03-25T04:55:49;94614.81;;;11.73;65.80
20612;BME280;10465;42.686;23.364;2023-03-25T04:58:16;94593.97;;;11.54;65.65
20612;BME280;10465;42.686;23.364;2023-03-25T05:00:43;94614.06;;;11.64;65.88
20612;BME280;10465;42.686;23.364;2023-03-25T05:03:09;94621.88;;;11.60;66.03
20612;BME280;10465;42.686;23.364;2023-03-25T05:05:36;94601.34;;;11.40;66.33
20612;BME280;10465;42.686;23.364;2023-03-25T05:08:02;94619.44;;;11.29;66.76
20612;BME280;10465;42.686;23.364;2023-03-25T05:10:27;94606.97;;;11.30;66.46
20612;BME280;10465;42.686;23.364;2023-03-25T05:13:06;94614.94;;;11.30;66.56
20612;BME280;10465;42.686;23.364;2023-03-25T05:15:34;94610.81;;;11.50;66.17
20612;BME280;10465;42.686;23.364;2023-03-25T05:18:11;94612.38;;;11.59;65.97
20612;BME280;10465;42.686;23.364;2023-03-25T05:20:44;94617.94;;;11.75;65.90
20612;BME280;10465;42.686;23.364;2023-03-25T05:23:12;94593.16;;;11.71;65.55
20612;BME280;10465;42.686;23.364;2023-03-25T05:25:51;94621.56;;;12.09;65.01
20612;BME280;10465;42.686;23.364;2023-03-25T05:28:17;94616.06;;;12.14;63.83
20612;BME280;10465;42.686;23.364;2023-03-25T05:30:44;94611.03;;;12.21;63.46
20612;BME280;10465;42.686;23.364;2023-03-25T05:33:12;94622.25;;;12.27;63.24
20612;BME280;10465;42.686;23.364;2023-03-25T05:35:40;94618.03;;;12.26;63.51
20612;BME280;10465;42.686;23.364;2023-03-25T05:38:07;94610.34;;;12.33;64.32
20612;BME280;10465;42.686;23.364;2023-03-25T05:40:33;94609.38;;;12.37;64.12
20612;BME280;10465;42.686;23.364;2023-03-25T05:42:59;94591.59;;;12.38;63.93
20612;BME280;10465;42.686;23.364;2023-03-25T05:45:24;94619.38;;;12.61;63.78
20612;BME280;10465;42.686;23.364;2023-03-25T05:47:50;94623.72;;;12.66;62.73
20612;BME280;10465;42.686;23.364;2023-03-25T05:50:16;94623.16;;;12.60;62.71
20612;BME280;10465;42.686;23.364;2023-03-25T05:52:42;94615.81;;;12.57;63.86
20612;BME280;10465;42.686;23.364;2023-03-25T05:57:43;94591.97;;;12.28;63.20
20612;BME280;10465;42.686;23.364;2023-03-25T06:00:10;94605.47;;;12.44;62.92
20612;BME280;10465;42.686;23.364;2023-03-25T06:02:37;94625.88;;;12.52;62.66
20612;BME280;10465;42.686;23.364;2023-03-25T06:05:06;94614.78;;;12.50;62.15
20612;BME280;10465;42.686;23.364;2023-03-25T06:07:34;94620.50;;;12.60;62.65
20612;BME280;10465;42.686;23.364;2023-03-25T06:10:02;94621.06;;;12.66;62.22
20612;BME280;10465;42.686;23.364;2023-03-25T06:12:28;94623.09;;;12.69;62.07
20612;BME280;10465;42.686;23.364;2023-03-25T06:14:56;94576.38;;;12.47;61.88
20612;BME280;10465;42.686;23.364;2023-03-25T06:17:22;94614.22;;;12.65;62.39
20612;BME280;10465;42.686;23.364;2023-03-25T06:19:50;94622.88;;;12.74;62.28
20612;BME280;10465;42.686;23.364;2023-03-25T06:22:17;94616.72;;;12.82;62.57
20612;BME280;10465;42.686;23.364;2023-03-25T06:24:46;94613.94;;;12.79;62.27
20612;BME280;10465;42.686;23.364;2023-03-25T06:27:15;94584.03;;;12.49;62.24
20612;BME280;10465;42.686;23.364;2023-03-25T06:29:42;94615.91;;;12.70;62.23
20612;BME280;10465;42.686;23.364;2023-03-25T06:32:09;94623.88;;;12.70;63.11
20612;BME280;10465;42.686;23.364;2023-03-25T06:34:36;94585.44;;;12.46;63.64
20612;BME280;10465;42.686;23.364;2023-03-25T06:37:03;94621.22;;;12.70;63.21
20612;BME280;10465;42.686;23.364;2023-03-25T06:39:28;94631.50;;;12.92;62.45
20612;BME280;10465;42.686;23.364;2023-03-25T06:41:58;94627.22;;;13.00;61.97
20612;BME280;10465;42.686;23.364;2023-03-25T06:44:25;94621.00;;;13.17;61.63
20612;BME280;10465;42.686;23.364;2023-03-25T06:46:51;94623.91;;;13.24;60.98
20612;BME280;10465;42.686;23.364;2023-03-25T06:49:17;94615.84;;;13.32;60.94
20612;BME280;10465;42.686;23.364;2023-03-25T06:51:42;94599.84;;;13.20;61.14
20612;BME280;10465;42.686;23.364;2023-03-25T06:54:08;94630.53;;;13.51;60.85
20612;BME280;10465;42.686;23.364;2023-03-25T06:56:33;94606.94;;;13.49;60.75
20612;BME280;10465;42.686;23.364;2023-03-25T06:58:59;94634.34;;;13.62;60.79
20612;BME280;10465;42.686;23.364;2023-03-25T07:01:25;94628.59;;;13.72;60.23
20612;BME280;10465;42.686;23.364;2023-03-25T07:03:50;94628.50;;;13.81;60.06
20612;BME280;10465;42.686;23.364;2023-03-25T07:06:18;94638.50;;;14.08;60.80
20612;BME280;10465;42.686;23.364;2023-03-25T07:08:45;94636.97;;;14.20;60.04
20612;BME280;10465;42.686;23.364;2023-03-25T07:11:11;94640.97;;;14.38;59.59
20612;BME280;10465;42.686;23.364;2023-03-25T07:13:38;94619.88;;;14.33;58.61
20612;BME280;10465;42.686;23.364;2023-03-25T07:16:04;94631.84;;;14.64;58.80
20612;BME280;10465;42.686;23.364;2023-03-25T07:18:31;94609.53;;;14.68;58.77
20612;BME280;10465;42.686;23.364;2023-03-25T07:20:57;94616.06;;;14.83;56.94
20612;BME280;10465;42.686;23.364;2023-03-25T07:23:23;94627.91;;;14.86;57.00
20612;BME280;10465;42.686;23.364;2023-03-25T07:25:48;94625.22;;;14.98;56.93
20612;BME280;10465;42.686;23.364;2023-03-25T07:28:14;94626.06;;;15.14;55.70
20612;BME280;10465;42.686;23.364;2023-03-25T07:30:39;94627.56;;;15.27;55.20
20612;BME280;10465;42.686;23.364;2023-03-25T07:33:05;94598.72;;;15.17;55.22
20612;BME280;10465;42.686;23.364;2023-03-25T07:35:30;94624.34;;;15.50;55.17
20612;BME280;10465;42.686;23.364;2023-03-25T07:37:56;94599.47;;;15.46;55.01
20612;BME280;10465;42.686;23.364;2023-03-25T07:40:21;94624.28;;;15.62;54.18
20612;BME280;10465;42.686;23.364;2023-03-25T07:42:47;94603.06;;;15.66;54.20
20612;BME280;10465;42.686;23.364;2023-03-25T07:45:12;94600.75;;;15.80;53.33
20612;BME280;10465;42.686;23.364;2023-03-25T07:47:38;94617.28;;;16.01;53.77
20612;BME280;10465;42.686;23.364;2023-03-25T07:50:04;94584.38;;;15.97;53.08
20612;BME280;10465;42.686;23.364;2023-03-25T07:52:29;94587.06;;;16.13;52.81
20612;BME280;10465;42.686;23.364;2023-03-25T07:54:55;94595.09;;;16.32;51.83
20612;BME280;10465;42.686;23.364;2023-03-25T07:57:20;94602.44;;;16.71;50.87
20612;BME280;10465;42.686;23.364;2023-03-25T07:59:46;94602.63;;;16.97;50.21
20612;BME280;10465;42.686;23.364;2023-03-25T08:02:12;94592.91;;;17.09;50.25
20612;BME280;10465;42.686;23.364;2023-03-25T08:04:38;94568.38;;;17.03;49.51
20612;BME280;10465;42.686;23.364;2023-03-25T08:07:04;94579.69;;;17.16;49.30
20612;BME280;10465;42.686;23.364;2023-03-25T08:09:30;94589.84;;;17.26;49.00
20612;BME280;10465;42.686;23.364;2023-03-25T08:11:56;94583.88;;;17.36;49.71
20612;BME280;10465;42.686;23.364;2023-03-25T08:14:22;94574.09;;;17.44;48.79
20612;BME280;10465;42.686;23.364;2023-03-25T08:16:47;94569.53;;;17.67;47.44
20612;BME280;10465;42.686;23.364;2023-03-25T08:19:13;94568.38;;;17.88;47.33
20612;BME280;10465;42.686;23.364;2023-03-25T08:21:38;94576.09;;;18.16;46.71
20612;BME280;10465;42.686;23.364;2023-03-25T08:24:04;94585.41;;;18.25;46.32
20612;BME280;10465;42.686;23.364;2023-03-25T08:26:31;94569.28;;;18.48;44.74
20612;BME280;10465;42.686;23.364;2023-03-25T08:28:58;94570.03;;;18.72;44.28
20612;BME280;10465;42.686;23.364;2023-03-25T08:31:28;94548.00;;;18.89;44.33
20612;BME280;10465;42.686;23.364;2023-03-25T08:34:02;94548.34;;;18.84;45.38
20612;BME280;10465;42.686;23.364;2023-03-25T08:36:28;94577.09;;;18.87;45.62
20612;BME280;10465;42.686;23.364;2023-03-25T08:38:54;94581.59;;;18.80;44.99
20612;BME280;10465;42.686;23.364;2023-03-25T08:41:20;94570.66;;;18.65;45.42
20612;BME280;10465;42.686;23.364;2023-03-25T08:43:46;94565.34;;;18.69;45.30
20612;BME280;10465;42.686;23.364;2023-03-25T08:46:11;94554.78;;;18.80;44.96
20612;BME280;10465;42.686;23.364;2023-03-25T08:48:37;94487.84;;;18.57;44.57
20612;BME280;10465;42.686;23.364;2023-03-25T08:51:03;94523.81;;;18.86;43.81
20612;BME280;10465;42.686;23.364;2023-03-25T08:53:28;94548.06;;;19.30;43.99
20612;BME280;10465;42.686;23.364;2023-03-25T08:55:55;94546.75;;;19.50;43.58
20612;BME280;10465;42.686;23.364;2023-03-25T08:58:22;94541.38;;;19.50;43.41
20612;BME280;10465;42.686;23.364;2023-03-25T09:00:50;94541.91;;;19.26;43.83
20612;BME280;10465;42.686;23.364;2023-03-25T09:03:19;94540.00;;;19.26;44.79
20612;BME280;10465;42.686;23.364;2023-03-25T09:05:45;94532.38;;;19.32;44.03
20612;BME280;10465;42.686;23.364;2023-03-25T09:08:10;94525.53;;;19.38;45.11
20612;BME280;10465;42.686;23.364;2023-03-25T09:10:36;94530.56;;;19.43;43.95
20612;BME280;10465;42.686;23.364;2023-03-25T09:13:01;94530.44;;;19.66;43.63
20612;BME280;10465;42.686;23.364;2023-03-25T09:15:26;94512.91;;;19.83;43.55
20612;BME280;10465;42.686;23.364;2023-03-25T09:17:52;94523.16;;;20.18;43.13
20612;BME280;10465;42.686;23.364;2023-03-25T09:20:17;94523.63;;;20.31;41.69
20612;BME280;10465;42.686;23.364;2023-03-25T09:22:43;94513.28;;;20.40;41.20
20612;BME280;10465;42.686;23.364;2023-03-25T09:25:09;94514.63;;;20.71;40.50
20612;BME280;10465;42.686;23.364;2023-03-25T09:27:35;94502.81;;;20.94;39.93
20612;BME280;10465;42.686;23.364;2023-03-25T09:30:02;94505.22;;;21.31;39.47
20612;BME280;10465;42.686;23.364;2023-03-25T09:32:27;94511.41;;;21.50;39.28
20612;BME280;10465;42.686;23.364;2023-03-25T09:34:53;94505.28;;;21.49;38.80
20612;BME280;10465;42.686;23.364;2023-03-25T09:37:18;94504.81;;;21.26;39.15
20612;BME280;10465;42.686;23.364;2023-03-25T09:39:44;94503.66;;;21.30;39.07
20612;BME280;10465;42.686;23.364;2023-03-25T09:47:23;94497.59;;;21.76;38.83
20612;BME280;10465;42.686;23.364;2023-03-25T09:49:54;94478.38;;;21.60;38.86
20612;BME280;10465;42.686;23.364;2023-03-25T09:52:27;94493.34;;;21.50;38.45
20612;BME280;10465;42.686;23.364;2023-03-25T09:54:58;94484.81;;;21.19;38.34
20612;BME280;10465;42.686;23.364;2023-03-25T09:57:30;94474.78;;;20.98;38.91
20612;BME280;10465;42.686;23.364;2023-03-25T09:59:59;94468.50;;;20.69;38.09
20612;BME280;10465;42.686;23.364;2023-03-25T10:09:06;94470.47;;;20.76;38.70
20612;BME280;10465;42.686;23.364;2023-03-25T10:11:54;94470.50;;;20.87;38.94
20612;BME280;10465;42.686;23.364;2023-03-25T10:17:08;94422.44;;;20.74;38.01
20612;BME280;10465;42.686;23.364;2023-03-25T10:19:53;94461.28;;;20.84;36.54
20612;BME280;10465;42.686;23.364;2023-03-25T10:22:29;94397.44;;;20.74;33.92
20612;BME280;10465;42.686;23.364;2023-03-25T10:25:07;94433.28;;;21.14;33.23
20612;BME280;10465;42.686;23.364;2023-03-25T10:27:38;94438.31;;;21.33;33.37
20612;BME280;10465;42.686;23.364;2023-03-25T10:32:38;94430.22;;;21.90;31.72
20612;BME280;10465;42.686;23.364;2023-03-25T10:35:10;94434.03;;;22.21;31.44
20612;BME280;10465;42.686;23.364;2023-03-25T10:37:39;94432.84;;;22.40;31.14
20612;BME280;10465;42.686;23.364;2023-03-25T10:42:50;94424.31;;;22.53;31.55
20612;BME280;10465;42.686;23.364;2023-03-25T10:45:20;94418.50;;;22.58;30.71
20612;BME280;10465;42.686;23.364;2023-03-25T10:47:47;94416.47;;;22.80;30.24
20612;BME280;10465;42.686;23.364;2023-03-25T10:50:16;94409.81;;;23.02;29.97
20612;BME280;10465;42.686;23.364;2023-03-25T10:52:42;94411.00;;;22.98;30.38
20612;BME280;10465;42.686;23.364;2023-03-25T10:55:22;94403.69;;;22.94;30.39
20612;BME280;10465;42.686;23.364;2023-03-25T10:57:49;94372.34;;;22.41;30.68
20612;BME280;10465;42.686;23.364;2023-03-25T11:00:16;94399.72;;;22.36;31.27
20612;BME280;10465;42.686;23.364;2023-03-25T11:02:46;94399.34;;;22.34;31.56
20612;BME280;10465;42.686;23.364;2023-03-25T11:05:15;94387.81;;;22.27;31.46
20612;BME280;10465;42.686;23.364;2023-03-25T11:07:46;94382.31;;;22.52;31.74
20612;BME280;10465;42.686;23.364;2023-03-25T11:10:24;94373.63;;;22.92;31.45
20612;BME280;10465;42.686;23.364;2023-03-25T11:12:51;94374.28;;;23.11;31.13
20612;BME280;10465;42.686;23.364;2023-03-25T11:15:23;94375.63;;;23.37;30.56
20612;BME280;10465;42.686;23.364;2023-03-25T11:18:17;94378.25;;;23.48;30.56
20612;BME280;10465;42.686;23.364;2023-03-25T11:20:50;94365.91;;;23.47;30.91
20612;BME280;10465;42.686;23.364;2023-03-25T11:24:01;94371.06;;;23.30;30.86
20612;BME280;10465;42.686;23.364;2023-03-25T11:26:24;94359.31;;;23.03;31.42
20612;BME280;10465;42.686;23.364;2023-03-25T11:28:55;94355.09;;;22.98;31.75
20612;BME280;10465;42.686;23.364;2023-03-25T11:31:26;94352.38;;;23.02;31.68
20612;BME280;10465;42.686;23.364;2023-03-25T11:41:46;94308.19;;;24.05;30.08
20612;BME280;10465;42.686;23.364;2023-03-25T11:44:28;94329.81;;;23.71;30.07
20612;BME280;10465;42.686;23.364;2023-03-25T11:47:05;94331.19;;;23.45;30.75
20612;BME280;10465;42.686;23.364;2023-03-25T11:49:36;94314.59;;;23.02;30.26
20612;BME280;10465;42.686;23.364;2023-03-25T11:52:15;94309.41;;;22.66;30.28
20612;BME280;10465;42.686;23.364;2023-03-25T11:54:43;94325.34;;;22.42;30.83
20612;BME280;10465;42.686;23.364;2023-03-25T11:57:15;94289.88;;;22.44;30.98
20612;BME280;10465;42.686;23.364;2023-03-25T11:59:44;94311.59;;;22.89;30.57
20612;BME280;10465;42.686;23.364;2023-03-25T12:02:23;94303.56;;;22.75;30.72
20612;BME280;10465;42.686;23.364;2023-03-25T12:05:18;94298.09;;;22.89;30.60
20612;BME280;10465;42.686;23.364;2023-03-25T12:07:47;94302.72;;;22.85;30.66
20612;BME280;10465;42.686;23.364;2023-03-25T12:18:56;94290.84;;;22.02;31.76
20612;BME280;10465;42.686;23.364;2023-03-25T12:21:46;94289.34;;;21.93;31.94
20612;BME280;10465;42.686;23.364;2023-03-25T12:24:33;94298.28;;;21.69;32.03
20612;BME280;10465;42.686;23.364;2023-03-25T12:35:33;94287.56;;;21.44;32.38
20612;BME280;10465;42.686;23.364;2023-03-25T12:43:48;94299.47;;;21.29;32.13
20612;BME280;10465;42.686;23.364;2023-03-25T12:59:30;94296.81;;;21.32;32.54
20612;BME280;10465;42.686;23.364;2023-03-25T13:07:24;94297.56;;;21.04;33.00
20612;BME280;10465;42.686;23.364;2023-03-25T13:10:11;94287.94;;;21.10;33.02
20612;BME280;10465;42.686;23.364;2023-03-25T13:12:42;94275.66;;;20.88;33.05
20612;BME280;10465;42.686;23.364;2023-03-25T13:15:34;94295.66;;;20.97;33.06
20612;BME280;10465;42.686;23.364;2023-03-25T13:18:06;94236.50;;;20.58;32.85
20612;BME280;10465;42.686;23.364;2023-03-25T13:20:41;94303.72;;;20.83;33.13
20612;BME280;10465;42.686;23.364;2023-03-25T13:23:13;94299.09;;;20.69;33.42
20612;BME280;10465;42.686;23.364;2023-03-25T13:28:12;94304.84;;;20.68;34.22
20612;BME280;10465;42.686;23.364;2023-03-25T13:30:43;94295.63;;;20.51;34.56
20612;BME280;10465;42.686;23.364;2023-03-25T13:33:16;94283.69;;;20.48;34.93
20612;BME280;10465;42.686;23.364;2023-03-25T13:35:59;94297.16;;;20.56;35.48
20612;BME280;10465;42.686;23.364;2023-03-25T13:39:00;94301.69;;;20.37;35.07
20612;BME280;10465;42.686;23.364;2023-03-25T13:41:37;94305.53;;;20.25;35.34
20612;BME280;10465;42.686;23.364;2023-03-25T13:44:21;94289.69;;;19.99;35.32
20612;BME280;10465;42.686;23.364;2023-03-25T13:46:53;94283.06;;;19.71;35.35
20612;BME280;10465;42.686;23.364;2023-03-25T13:49:46;94306.19;;;19.97;36.22
20612;BME280;10465;42.686;23.364;2023-03-25T13:52:15;94318.06;;;19.89;37.33
20612;BME280;10465;42.686;23.364;2023-03-25T13:54:45;94327.16;;;19.70;38.08
20612;BME280;10465;42.686;23.364;2023-03-25T13:57:28;94331.72;;;19.63;38.19
20612;BME280;10465;42.686;23.364;2023-03-25T14:00:19;94358.09;;;19.54;39.06
20612;BME280;10465;42.686;23.364;2023-03-25T14:13:57;94351.63;;;19.07;45.23
20612;BME280;10465;42.686;23.364;2023-03-25T14:16:27;94304.66;;;18.79;45.13
20612;BME280;10465;42.686;23.364;2023-03-25T14:19:00;94360.00;;;19.01;45.17
20612;BME280;10465;42.686;23.364;2023-03-25T14:24:30;94336.25;;;19.03;46.55
20612;BME280;10465;42.686;23.364;2023-03-25T14:27:02;94340.97;;;19.17;47.00
20612;BME280;10465;42.686;23.364;2023-03-25T14:29:40;94355.09;;;19.11;48.15
20612;BME280;10465;42.686;23.364;2023-03-25T14:34:40;94338.25;;;18.69;51.80
20612;BME280;10465;42.686;23.364;2023-03-25T14:44:51;94321.53;;;18.46;56.95
20612;BME280;10465;42.686;23.364;2023-03-25T14:47:30;94231.91;;;17.09;58.94
20612;BME280;10465;42.686;23.364;2023-03-25T14:50:28;94251.22;;;16.95;61.49
20612;BME280;10465;42.686;23.364;2023-03-25T14:52:57;94263.41;;;17.19;64.16
20612;BME280;10465;42.686;23.364;2023-03-25T14:55:33;94264.34;;;17.34;63.57
20612;BME280;10465;42.686;23.364;2023-03-25T14:58:03;94253.53;;;17.23;63.04
20612;BME280;10465;42.686;23.364;2023-03-25T15:00:33;94262.00;;;17.28;62.36
20612;BME280;10465;42.686;23.364;2023-03-25T15:03:11;94265.75;;;17.50;62.84
20612;BME280;10465;42.686;23.364;2023-03-25T15:05:37;94255.31;;;17.15;64.69
20612;BME280;10465;42.686;23.364;2023-03-25T15:08:15;94265.66;;;17.43;65.05
20612;BME280;10465;42.686;23.364;2023-03-25T15:10:50;94258.69;;;17.69;63.74
20612;BME280;10465;42.686;23.364;2023-03-25T15:13:29;94259.19;;;17.48;61.82
20612;BME280;10465;42.686;23.364;2023-03-25T15:16:54;94257.34;;;17.22;63.42
20612;BME280;10465;42.686;23.364;2023-03-25T15:21:18;94261.19;;;17.24;65.52
20612;BME280;10465;42.686;23.364;2023-03-25T15:26:29;94265.81;;;17.27;62.02
20612;BME280;10465;42.686;23.364;2023-03-25T15:41:02;94244.03;;;17.29;61.71
20612;BME280;10465;42.686;23.364;2023-03-25T15:46:50;94240.53;;;17.51;62.43